createdAt,value
2018-11-02T00:03:56.346Z,101087.14
2018-11-02T00:08:48.969Z,101116.23
2018-11-02T00:13:41.735Z,101137.52
2018-11-02T00:18:34.344Z,101156.98
2018-11-02T00:23:26.960Z,101130.73
2018-11-02T00:28:19.573Z,101133.42
2018-11-02T00:33:12.182Z,101125.36
2018-11-02T00:38:05.691Z,101142.31
2018-11-02T00:42:58.332Z,101140.45
2018-11-02T00:47:50.971Z,101141.59
2018-11-02T00:52:43.649Z,101150.16
2018-11-02T00:57:36.281Z,101143.62
2018-11-02T01:02:35.678Z,101138.56
2018-11-02T01:07:28.350Z,101147.66
2018-11-02T01:12:21.007Z,101137.34
2018-11-02T01:17:13.648Z,101138.69
2018-11-02T01:22:09.085Z,101150.40
2018-11-02T01:27:01.720Z,101135.63
2018-11-02T01:31:54.788Z,101139.41
2018-11-02T01:36:47.434Z,101159.56
2018-11-02T01:41:40.145Z,101180.25
2018-11-02T01:46:32.907Z,101192.26
2018-11-02T01:51:25.547Z,101198.98
2018-11-02T01:56:18.193Z,101189.89
2018-11-02T02:01:10.885Z,101198.27
2018-11-02T02:06:03.852Z,101197.64
2018-11-02T02:10:56.461Z,101201.36
2018-11-02T02:15:49.181Z,101207.76
2018-11-02T02:20:41.957Z,101204.34
2018-11-02T02:25:34.688Z,101199.48
2018-11-02T02:30:27.311Z,101205.48
2018-11-02T02:35:19.929Z,101204.65
2018-11-02T02:40:12.791Z,101215.91
2018-11-02T02:45:06.380Z,101238.41
2018-11-02T02:49:59.033Z,101261.67
2018-11-02T02:54:51.661Z,101252.05
2018-11-02T02:59:44.252Z,101245.97
2018-11-02T03:04:36.997Z,101254.22
2018-11-02T03:09:29.602Z,101260.61
2018-11-02T03:14:22.340Z,101259.67
2018-11-02T03:19:14.977Z,101270.09
2018-11-02T03:24:07.694Z,101275.66
2018-11-02T03:29:00.361Z,101282.48
2018-11-02T03:33:52.991Z,101292.20
2018-11-02T03:38:45.649Z,101284.66
2018-11-02T03:43:38.501Z,101281.97
2018-11-02T03:48:31.143Z,101282.28
2018-11-02T03:53:23.949Z,101292.31
2018-11-02T03:58:16.749Z,101296.66
2018-11-02T04:03:09.376Z,101290.77
2018-11-02T04:08:02.045Z,101299.02
2018-11-02T04:12:54.696Z,101296.22
2018-11-02T04:17:47.321Z,101306.52
2018-11-02T04:22:40.008Z,101306.02
2018-11-02T04:27:32.695Z,101297.95
2018-11-02T04:32:25.315Z,101315.72
2018-11-02T04:37:17.961Z,101308.70
2018-11-02T04:42:10.639Z,101323.97
2018-11-02T04:47:03.333Z,101334.11
2018-11-02T04:51:55.964Z,101342.16
2018-11-02T04:56:48.614Z,101351.44
2018-11-02T05:01:41.320Z,101345.63
2018-11-02T05:06:34.012Z,101347.88
2018-11-02T05:11:26.711Z,101366.06
2018-11-02T05:16:19.481Z,101368.81
2018-11-02T05:21:12.116Z,101357.96
2018-11-02T05:26:05.142Z,101363.52
2018-11-02T05:30:57.808Z,101376.11
2018-11-02T05:35:50.448Z,101391.70
2018-11-02T05:40:43.253Z,101404.19
2018-11-02T05:45:35.929Z,101415.82
2018-11-02T05:50:28.653Z,101420.55
2018-11-02T05:55:21.357Z,101423.11
2018-11-02T06:00:14.070Z,101425.18
2018-11-02T06:05:06.823Z,101437.03
2018-11-02T06:09:59.564Z,101447.98
2018-11-02T06:14:52.247Z,101425.47
2018-11-02T06:19:44.839Z,101428.16
2018-11-02T06:24:37.658Z,101435.69
2018-11-02T06:29:30.370Z,101454.59
2018-11-02T06:34:24.381Z,101460.92
2018-11-02T06:39:17.507Z,101468.45
2018-11-02T06:44:10.615Z,101484.68
2018-11-02T06:49:03.297Z,101490.05
2018-11-02T06:53:55.910Z,101499.53
2018-11-02T06:58:48.558Z,101515.77
2018-11-02T07:03:41.185Z,101530.33
2018-11-02T07:08:33.891Z,101538.19
2018-11-02T07:13:26.549Z,101533.05
2018-11-02T07:18:19.294Z,101535.48
2018-11-02T07:23:11.882Z,101543.97
2018-11-02T07:28:05.458Z,101547.84
2018-11-02T07:32:58.143Z,101560.91
2018-11-02T07:37:50.839Z,101558.11
2018-11-02T07:42:43.503Z,101552.37
2018-11-02T07:47:36.244Z,101563.48
2018-11-02T07:52:28.902Z,101560.98
2018-11-02T07:57:21.550Z,101578.19
2018-11-02T08:02:14.173Z,101594.96
2018-11-02T08:07:07.091Z,101582.48
2018-11-02T08:11:59.739Z,101599.37
2018-11-02T08:16:52.473Z,101607.28
2018-11-02T08:21:45.090Z,101619.34
2018-11-02T08:26:37.897Z,101632.20
2018-11-02T08:31:30.534Z,101635.43
2018-11-02T08:36:23.134Z,101639.58
2018-11-02T08:41:15.798Z,101639.39
2018-11-02T08:46:08.483Z,101655.44
2018-11-02T08:51:01.174Z,101667.44
2018-11-02T08:55:53.837Z,101662.06
2018-11-02T09:00:46.494Z,101660.61
2018-11-02T09:05:39.281Z,101656.76
2018-11-02T09:10:32.134Z,101663.71
2018-11-02T09:15:24.772Z,101675.84
2018-11-02T09:20:17.453Z,101685.77
2018-11-02T09:25:10.171Z,101688.88
2018-11-02T09:30:02.934Z,101697.48
2018-11-02T09:34:55.550Z,101710.64
2018-11-02T09:39:48.247Z,101705.98
2018-11-02T09:44:41.104Z,101728.89
2018-11-02T09:49:33.869Z,101721.11
2018-11-02T09:54:26.508Z,101725.15
2018-11-02T09:59:19.287Z,101722.05
2018-11-02T10:04:12.118Z,101718.19
2018-11-02T10:09:08.168Z,101714.67
2018-11-02T10:14:00.895Z,101716.83
2018-11-02T10:18:53.642Z,101709.64
2018-11-02T10:23:46.374Z,101722.72
2018-11-02T10:28:39.044Z,101715.11
2018-11-02T10:33:31.862Z,101733.30
2018-11-02T10:38:24.605Z,101726.93
2018-11-02T10:43:18.072Z,101714.55
2018-11-02T10:48:10.781Z,101716.06
2018-11-02T10:53:03.647Z,101729.67
2018-11-02T10:57:56.426Z,101750.17
2018-11-02T11:02:49.149Z,101744.83
2018-11-02T11:07:41.981Z,101753.41
2018-11-02T11:12:34.824Z,101756.95
2018-11-02T11:17:27.294Z,101751.94
2018-11-02T11:22:19.951Z,101740.67
2018-11-02T11:27:12.676Z,101735.41
2018-11-02T11:32:05.599Z,101751.11
2018-11-02T11:36:58.280Z,101756.33
2018-11-02T11:41:50.955Z,101751.81
2018-11-02T11:46:43.598Z,101770.55
2018-11-02T11:51:36.294Z,101754.59
2018-11-02T11:56:29.057Z,101765.03
2018-11-02T12:01:21.801Z,101775.16
2018-11-02T12:06:14.625Z,101775.72
2018-11-02T12:11:07.301Z,101797.22
2018-11-02T12:15:59.965Z,101778.03
2018-11-02T12:20:52.530Z,101775.72
2018-11-02T12:25:45.213Z,101785.29
2018-11-02T12:30:37.912Z,101781.03
2018-11-02T12:35:30.706Z,101779.20
2018-11-02T12:40:23.886Z,101783.58
2018-11-02T12:45:17.721Z,101775.73
2018-11-02T12:50:16.970Z,101786.33
2018-11-02T12:55:10.175Z,101789.41
2018-11-02T13:00:02.961Z,101795.41
2018-11-02T13:04:55.614Z,101804.74
2018-11-02T13:09:48.282Z,101812.72
2018-11-02T13:14:40.901Z,101817.03
2018-11-02T13:19:33.602Z,101820.36
2018-11-02T13:24:26.284Z,101822.62
2018-11-02T13:29:18.966Z,101818.91
2018-11-02T13:34:11.654Z,101822.98
2018-11-02T13:39:08.501Z,101840.09
2018-11-02T13:44:01.216Z,101857.80
2018-11-02T13:48:53.914Z,101860.31
2018-11-02T13:53:46.822Z,101866.38
2018-11-02T13:58:39.553Z,101866.84
2018-11-02T14:03:32.218Z,101865.03
2018-11-02T14:08:24.878Z,101860.50
2018-11-02T14:13:17.801Z,101849.05
2018-11-02T14:18:10.499Z,101856.48
2018-11-02T14:23:03.384Z,101863.53
2018-11-02T14:27:56.049Z,101861.66
2018-11-02T14:32:48.913Z,101877.30
2018-11-02T14:37:41.545Z,101890.11
2018-11-02T14:42:34.309Z,101895.84
2018-11-02T14:47:27.095Z,101894.48
2018-11-02T14:52:19.917Z,101903.55
2018-11-02T14:57:12.515Z,101893.45
2018-11-02T15:02:05.314Z,101910.36
2018-11-02T15:06:57.970Z,101914.27
2018-11-02T15:11:50.746Z,101915.94
2018-11-02T15:16:43.496Z,101930.84
2018-11-02T15:21:36.302Z,101944.95
2018-11-02T15:26:29.048Z,101949.39
2018-11-02T15:31:21.663Z,101954.21
2018-11-02T15:36:14.248Z,101946.09
2018-11-02T15:41:06.969Z,101952.86
2018-11-02T15:45:59.682Z,101970.78
2018-11-02T15:50:52.324Z,101980.09
2018-11-02T15:55:44.932Z,101991.01
2018-11-02T16:00:37.554Z,102001.14
2018-11-02T16:05:30.258Z,102006.85
2018-11-02T16:10:22.874Z,102014.80
2018-11-02T16:15:15.527Z,102008.38
2018-11-02T16:20:10.831Z,102002.72
2018-11-02T16:25:03.570Z,102004.05
2018-11-02T16:29:56.211Z,102003.09
2018-11-02T16:34:48.825Z,102003.42
2018-11-02T16:39:41.882Z,102003.36
2018-11-02T16:44:34.574Z,102004.41
2018-11-02T16:49:27.205Z,102001.09
2018-11-02T16:54:19.856Z,102010.46
2018-11-02T16:59:12.609Z,102027.65
2018-11-02T17:04:05.182Z,102045.91
2018-11-02T17:08:57.788Z,102054.56
2018-11-02T17:13:50.491Z,102076.60
2018-11-02T17:18:43.236Z,102088.92
2018-11-02T17:23:35.864Z,102088.96
2018-11-02T17:28:28.497Z,102098.04
2018-11-02T17:33:21.652Z,102102.74
2018-11-02T17:38:14.369Z,102114.48
2018-11-02T17:43:07.072Z,102114.91
2018-11-02T17:47:59.717Z,102116.58
2018-11-02T17:52:52.333Z,102129.99
2018-11-02T17:57:44.893Z,102142.84
2018-11-02T18:02:37.493Z,102147.42
2018-11-02T18:07:30.146Z,102153.55
2018-11-02T18:12:22.880Z,102154.89
2018-11-02T18:17:15.789Z,102154.06
2018-11-02T18:22:08.517Z,102155.18
2018-11-02T18:27:01.389Z,102173.56
2018-11-02T18:31:54.082Z,102169.91
2018-11-02T18:36:46.796Z,102186.11
2018-11-02T18:41:39.708Z,102196.55
2018-11-02T18:46:32.340Z,102189.27
2018-11-02T18:51:24.974Z,102199.22
2018-11-02T18:56:17.729Z,102204.06
2018-11-02T19:01:10.381Z,102216.06
2018-11-02T19:06:03.015Z,102220.67
2018-11-02T19:10:55.674Z,102230.92
2018-11-02T19:15:48.468Z,102251.67
2018-11-02T19:20:41.024Z,102239.89
2018-11-02T19:25:33.688Z,102250.09
2018-11-02T19:30:26.362Z,102261.92
2018-11-02T19:35:19.136Z,102268.81
2018-11-02T19:40:12.970Z,102278.81
2018-11-02T19:45:06.648Z,102275.05
2018-11-02T19:49:59.265Z,102286.53
2018-11-02T19:54:52.668Z,102299.26
2018-11-02T19:59:47.010Z,102314.27
2018-11-02T20:04:40.244Z,102316.17
2018-11-02T20:09:33.536Z,102320.91
2018-11-02T20:14:27.226Z,102327.22
2018-11-02T20:19:20.343Z,102327.27
2018-11-02T20:24:13.529Z,102329.64
2018-11-02T20:29:10.639Z,102322.91
2018-11-02T20:34:06.150Z,102322.06
2018-11-02T20:38:59.525Z,102318.35
2018-11-02T20:43:52.731Z,102313.93
2018-11-02T20:48:45.866Z,102327.81
2018-11-02T20:53:38.948Z,102343.22
2018-11-02T20:58:32.072Z,102344.75
2018-11-02T21:03:25.807Z,102351.80
2018-11-02T21:08:18.932Z,102351.73
2018-11-02T21:13:11.884Z,102342.44
2018-11-02T21:18:05.726Z,102345.65
2018-11-02T21:22:59.642Z,102349.77
2018-11-02T21:27:52.652Z,102355.56
2018-11-02T21:32:56.538Z,102364.41
2018-11-02T21:37:49.828Z,102365.94
2018-11-02T21:42:42.818Z,102363.75
2018-11-02T21:47:35.888Z,102378.31
2018-11-02T21:52:28.855Z,102376.67
2018-11-02T21:57:21.758Z,102377.69
2018-11-02T22:02:15.520Z,102376.38
2018-11-02T22:07:08.245Z,102393.25
2018-11-02T22:12:00.934Z,102388.23
2018-11-02T22:16:53.905Z,102415.98
2018-11-02T22:21:46.753Z,102413.63
2018-11-02T22:26:39.501Z,102412.82
2018-11-02T22:31:32.183Z,102412.49
2018-11-02T22:36:24.927Z,102413.51
2018-11-02T22:41:17.614Z,102409.36
2018-11-02T22:46:10.535Z,102413.25
2018-11-02T22:51:03.215Z,102407.06
2018-11-02T22:55:55.807Z,102414.30
2018-11-02T23:00:54.407Z,102413.28
2018-11-02T23:05:47.125Z,102418.16
2018-11-02T23:10:39.718Z,102408.29
2018-11-02T23:15:32.375Z,102398.33
2018-11-02T23:20:25.089Z,102407.96
2018-11-02T23:25:17.773Z,102409.30
2018-11-02T23:30:10.820Z,102397.70
2018-11-02T23:35:03.407Z,102384.07
2018-11-02T23:39:56.130Z,102377.70
2018-11-02T23:44:48.957Z,102378.72
2018-11-02T23:49:41.555Z,102386.80
2018-11-02T23:54:34.280Z,102391.02
2018-11-02T23:59:26.974Z,102389.81
